Time;durP1;ratioP1;P1;durP2;ratioP2;P2;SDS_P1;SDS_P2;PMS_P1;PMS_P2;Temp;Humidity;BMP_temperature;BMP_pressure;BME280_temperature;BME280_humidity;BME280_pressure;Samples;Min_cycle;Max_cycle;Signal;HPM_P1;HPM_P2
2022/05/13 00:00:38;;;;;;;20.15;8.13;;;;;;;17.21;59.06;101128.94;1723524;81;27476;-59
2022/05/13 00:03:05;;;;;;;17.25;8.38;;;;;;;17.30;59.00;101116.17;1723597;82;26441;-59
2022/05/13 00:05:32;;;;;;;19.02;8.43;;;;;;;17.38;59.11;101113.12;1723482;83;25472;-59
2022/05/13 00:07:59;;;;;;;20.15;8.80;;;;;;;17.37;59.08;101123.14;1723286;83;27950;-59
2022/05/13 00:10:26;;;;;;;24.87;8.43;;;;;;;17.40;58.57;101126.88;1723478;83;27321;-59
2022/05/13 00:12:53;;;;;;;22.50;8.68;;;;;;;17.47;58.29;101129.77;1723111;83;27473;-59
2022/05/13 00:15:24;;;;;;;14.50;7.78;;;;;;;17.50;58.35;101128.91;1723306;83;25853;-59
2022/05/13 00:17:55;;;;;;;14.73;8.45;;;;;;;17.53;58.07;101135.86;1723557;82;25722;-59
2022/05/13 00:20:24;;;;;;;17.42;8.18;;;;;;;17.54;57.82;101129.41;1723584;82;25480;-59
2022/05/13 00:22:55;;;;;;;16.45;7.40;;;;;;;17.53;57.73;101131.78;1731742;81;25917;-60
2022/05/13 00:25:28;;;;;;;19.67;9.15;;;;;;;17.50;57.75;101130.27;1733021;82;46575;-60
2022/05/13 00:27:57;;;;;;;15.28;10.78;;;;;;;17.45;58.24;101128.55;1732973;82;25726;-59
2022/05/13 00:30:26;;;;;;;15.80;10.00;;;;;;;17.31;58.35;101129.27;1732975;82;25518;-59
2022/05/13 00:32:54;;;;;;;24.23;11.65;;;;;;;17.24;58.35;101129.63;1756701;80;25792;-59
2022/05/13 00:35:22;;;;;;;21.17;11.93;;;;;;;17.20;58.17;101133.20;1775164;80;25945;-59
2022/05/13 00:37:49;;;;;;;20.95;13.58;;;;;;;17.17;58.18;101123.49;1775025;80;27406;-59
2022/05/13 00:40:22;;;;;;;24.45;16.42;;;;;;;17.15;58.06;101126.92;1774972;80;25720;-59
2022/05/13 00:42:51;;;;;;;31.62;15.00;;;;;;;17.12;58.11;101131.33;1738577;80;25823;-59
2022/05/13 00:45:18;;;;;;;29.12;16.52;;;;;;;17.08;58.10;101126.40;1727654;82;25790;-59
2022/05/13 00:47:45;;;;;;;25.05;15.15;;;;;;;17.03;58.23;101125.55;1710172;83;27345;-59
2022/05/13 00:50:15;;;;;;;24.98;16.23;;;;;;;16.98;58.63;101131.50;1710340;83;27705;-60
2022/05/13 00:52:47;;;;;;;23.90;13.53;;;;;;;16.94;58.90;101125.20;1710301;83;25553;-59
2022/05/13 00:55:19;;;;;;;21.48;13.68;;;;;;;16.89;59.01;101133.34;1710541;83;25508;-59
2022/05/13 00:57:46;;;;;;;20.82;11.93;;;;;;;16.88;58.87;101132.13;1710747;83;25806;-60
2022/05/13 01:00:15;;;;;;;19.65;11.08;;;;;;;16.86;59.43;101130.09;1711004;82;25738;-59
2022/05/13 01:02:45;;;;;;;29.27;12.50;;;;;;;16.72;59.52;101129.75;1735472;82;28302;-60
2022/05/13 01:05:15;;;;;;;18.35;11.18;;;;;;;16.68;59.65;101124.30;1735629;82;25664;-59
2022/05/13 01:07:43;;;;;;;18.07;9.60;;;;;;;16.69;59.82;101126.53;1735689;82;25772;-59
2022/05/13 01:10:17;;;;;;;18.87;9.78;;;;;;;16.68;59.88;101126.18;1735352;82;26167;-59
2022/05/13 01:12:50;;;;;;;18.17;9.30;;;;;;;16.68;61.02;101131.09;1735607;82;25976;-59
2022/05/13 01:15:28;;;;;;;15.43;7.90;;;;;;;16.60;60.73;101136.52;1735762;82;27784;-59
2022/05/13 01:18:07;;;;;;;18.05;8.08;;;;;;;16.53;60.86;101140.42;1733781;82;25776;-59
2022/05/13 01:20:46;;;;;;;20.70;7.53;;;;;;;16.50;61.14;101142.11;1735668;82;25770;-59
2022/05/13 01:23:19;;;;;;;16.55;7.67;;;;;;;16.50;61.41;101151.61;1737252;82;25914;-59
2022/05/13 01:26:03;;;;;;;18.25;7.10;;;;;;;16.50;61.16;101159.76;1736508;82;25817;-60
2022/05/13 01:28:38;;;;;;;12.37;6.55;;;;;;;16.53;61.69;101158.08;1737066;82;28200;-59
2022/05/13 01:31:10;;;;;;;14.18;6.95;;;;;;;16.53;61.25;101157.22;1737348;82;25713;-59
2022/05/13 01:33:39;;;;;;;17.50;6.95;;;;;;;16.52;61.94;101161.81;1703208;82;25645;-59
2022/05/13 01:36:10;;;;;;;16.45;7.20;;;;;;;16.54;61.60;101160.27;1697764;83;25882;-59
2022/05/13 01:38:39;;;;;;;14.25;7.05;;;;;;;16.57;61.42;101158.59;1697824;83;25777;-59
2022/05/13 01:41:09;;;;;;;13.28;6.92;;;;;;;16.56;61.52;101159.09;1701262;82;27446;-60
2022/05/13 01:43:38;;;;;;;19.25;8.08;;;;;;;16.56;61.86;101162.33;1745435;82;25460;-59
2022/05/13 01:46:05;;;;;;;16.55;8.53;;;;;;;16.54;61.44;101155.68;1731421;82;25810;-59
2022/05/13 01:48:34;;;;;;;15.95;7.35;;;;;;;16.55;61.73;101165.53;1700266;83;25844;-59
2022/05/13 01:51:01;;;;;;;15.48;7.92;;;;;;;16.53;61.81;101159.44;1700421;84;25718;-59
2022/05/13 01:53:27;;;;;;;21.93;7.37;;;;;;;16.46;61.74;101152.11;1700072;83;27495;-59
2022/05/13 01:55:54;;;;;;;17.90;7.40;;;;;;;16.41;61.60;101159.39;1700086;84;25731;-59
2022/05/13 01:58:24;;;;;;;22.15;7.80;;;;;;;16.41;61.78;101154.80;1700272;84;25730;-59
2022/05/13 02:00:54;;;;;;;18.50;7.92;;;;;;;16.41;61.77;101160.75;1710787;82;25967;-59
2022/05/13 02:06:08;;;;;;;13.83;7.37;;;;;;;16.34;61.92;101157.00;1737276;82;28497;-60
2022/05/13 02:08:35;;;;;;;18.42;8.10;;;;;;;16.28;61.76;101162.06;1737438;81;25740;-60
2022/05/13 02:11:03;;;;;;;17.23;7.80;;;;;;;16.26;62.17;101167.31;1737386;81;25738;-60
2022/05/13 02:13:30;;;;;;;16.93;8.35;;;;;;;16.25;62.30;101169.19;1737284;81;25943;-60
2022/05/13 02:15:57;;;;;;;16.80;7.90;;;;;;;16.24;62.34;101170.20;1737533;82;25800;-60
2022/05/13 02:18:24;;;;;;;19.37;8.18;;;;;;;16.18;63.10;101171.36;1737447;81;27482;-60
2022/05/13 02:20:51;;;;;;;10.43;7.60;;;;;;;16.14;63.13;101165.41;1737421;82;26221;-60
2022/05/13 02:23:22;;;;;;;17.00;8.03;;;;;;;16.16;63.24;101167.95;1737537;82;26316;-60
2022/05/13 02:25:51;;;;;;;12.43;7.35;;;;;;;16.18;63.61;101166.77;1737475;82;25841;-60
2022/05/13 02:28:19;;;;;;;18.55;8.65;;;;;;;16.15;63.98;101177.10;1737487;82;25785;-60
2022/05/13 02:30:45;;;;;;;16.12;8.30;;;;;;;16.14;63.59;101165.41;1737416;82;27558;-60
2022/05/13 02:33:13;;;;;;;19.23;8.48;;;;;;;16.14;63.63;101174.07;1763614;80;25456;-60
2022/05/13 02:35:40;;;;;;;18.48;8.43;;;;;;;16.13;63.75;101172.37;1775278;80;25757;-60
2022/05/13 02:38:09;;;;;;;14.23;7.58;;;;;;;16.14;63.93;101176.78;1774861;80;25858;-60
2022/05/13 02:43:23;;;;;;;18.85;7.97;;;;;;;16.16;63.95;101174.24;1774796;80;27558;-59
2022/05/13 02:45:49;;;;;;;18.25;8.20;;;;;;;16.19;64.35;101181.20;1774731;80;26079;-60
2022/05/13 02:48:16;;;;;;;15.48;7.17;;;;;;;16.23;64.37;101187.50;1774828;80;25715;-60
2022/05/13 02:50:43;;;;;;;16.50;6.87;;;;;;;16.25;64.43;101185.48;1774789;80;25772;-60
2022/05/13 02:53:10;;;;;;;13.95;6.83;;;;;;;16.22;64.40;101180.37;1774636;80;25764;-60
2022/05/13 02:55:37;;;;;;;14.63;7.08;;;;;;;16.22;64.63;101189.87;1774974;80;27595;-60
2022/05/13 02:58:04;;;;;;;13.05;6.72;;;;;;;16.24;64.23;101183.78;1774911;80;25930;-60
2022/05/13 03:00:33;;;;;;;17.42;7.10;;;;;;;16.31;64.41;101188.54;1769034;79;25744;-60
2022/05/13 03:03:00;;;;;;;17.37;7.20;;;;;;;16.34;64.41;101193.13;1732655;81;25795;-60
2022/05/13 03:05:29;;;;;;;17.12;6.35;;;;;;;16.37;64.39;101198.73;1732680;81;25754;-60
2022/05/13 03:07:57;;;;;;;13.62;6.85;;;;;;;16.41;64.29;101198.77;1732618;82;27582;-60
2022/05/13 03:10:24;;;;;;;16.32;8.13;;;;;;;16.44;64.02;101206.59;1732575;82;25872;-60
2022/05/13 03:12:50;;;;;;;15.95;7.87;;;;;;;16.49;64.09;101200.15;1732772;81;25523;-59
2022/05/13 03:15:17;;;;;;;16.27;8.53;;;;;;;16.48;63.84;101202.52;1732680;81;26745;-60
2022/05/13 03:17:44;;;;;;;12.68;7.67;;;;;;;16.49;63.70;101209.66;1732910;82;25772;-60
2022/05/13 03:20:15;;;;;;;19.10;8.15;;;;;;;16.47;63.90;101208.12;1733101;81;27406;-59
2022/05/13 03:22:42;;;;;;;18.15;7.72;;;;;;;16.47;63.61;101210.84;1731831;82;25710;-60
2022/05/13 03:25:10;;;;;;;16.40;7.78;;;;;;;16.47;63.79;101212.20;1730617;81;25729;-60
2022/05/13 03:27:36;;;;;;;12.82;7.62;;;;;;;16.46;63.79;101211.33;1730499;81;26614;-60
2022/05/13 03:30:06;;;;;;;17.62;7.67;;;;;;;16.46;64.17;101214.05;1730526;82;25779;-60
2022/05/13 03:32:33;;;;;;;14.47;8.63;;;;;;;16.45;63.82;101219.66;1731598;81;27457;-59
2022/05/13 03:35:00;;;;;;;28.05;8.93;;;;;;;16.44;63.76;101218.81;1732851;82;25792;-60
2022/05/13 03:37:27;;;;;;;16.17;7.97;;;;;;;16.47;64.18;101227.13;1732968;82;25748;-60
2022/05/13 03:39:54;;;;;;;11.40;7.17;;;;;;;16.49;64.02;101226.47;1733121;82;27952;-60
2022/05/13 03:42:22;;;;;;;14.07;7.37;;;;;;;16.52;64.09;101228.84;1738171;82;25807;-60
2022/05/13 03:44:50;;;;;;;13.78;6.87;;;;;;;16.54;64.53;101222.22;1741605;82;27459;-60
2022/05/13 03:47:18;;;;;;;16.17;6.60;;;;;;;16.57;64.32;101237.36;1773081;80;26119;-60
2022/05/13 03:49:45;;;;;;;14.45;6.53;;;;;;;16.63;64.58;101241.29;1780445;80;26174;-59
2022/05/13 03:52:13;;;;;;;11.73;6.28;;;;;;;16.70;64.68;101245.04;1780388;80;25821;-60
2022/05/13 03:54:40;;;;;;;15.15;5.60;;;;;;;16.78;64.87;101254.56;1780375;80;25759;-59
2022/05/13 03:57:08;;;;;;;13.65;6.67;;;;;;;16.86;64.80;101252.36;1780286;79;27288;-60
2022/05/13 03:59:37;;;;;;;24.63;6.83;;;;;;;16.96;64.77;101262.61;1780288;80;25466;-59
2022/05/13 04:02:05;;;;;;;14.43;6.20;;;;;;;17.01;63.28;101254.83;1743336;80;25699;-59
2022/05/13 04:08:56;;;;;;;16.37;6.17;;;;;;;17.08;62.76;101260.95;1733015;82;25800;-59
2022/05/13 04:09:46;;;;;;;12.85;5.30;;;;;;;17.27;62.81;101254.33;1733285;82;27283;-59
2022/05/13 04:17:43;;;;;;;16.00;6.15;;;;;;;17.67;61.75;101263.01;1733196;82;25780;-60
2022/05/13 04:20:11;;;;;;;17.73;6.75;;;;;;;17.73;61.16;101260.11;1733213;82;25617;-60
2022/05/13 04:22:38;;;;;;;26.02;6.15;;;;;;;17.74;60.33;101267.27;1738367;81;27520;-60
2022/05/13 04:25:06;;;;;;;19.92;6.62;;;;;;;17.76;59.97;101255.70;1756845;81;25763;-60
2022/05/13 04:27:33;;;;;;;32.60;7.80;;;;;;;17.81;59.69;101261.47;1756992;81;25742;-61
2022/05/13 04:30:00;;;;;;;19.40;7.67;;;;;;;17.90;59.29;101266.89;1756962;81;25801;-60
2022/05/13 04:32:26;;;;;;;27.30;7.80;;;;;;;17.94;58.99;101265.02;1757154;80;25789;-61
2022/05/13 04:34:53;;;;;;;27.55;6.90;;;;;;;18.02;58.82;101266.92;1757193;81;27492;-60
2022/05/13 04:37:20;;;;;;;22.80;7.25;;;;;;;18.09;58.67;101264.36;1757031;81;26162;-61
2022/05/13 04:39:52;;;;;;;22.60;6.70;;;;;;;18.09;58.31;101260.27;1757030;81;25850;-61
2022/05/13 04:45:04;;;;;;;16.60;6.85;;;;;;;18.13;58.82;101259.75;1746068;82;26478;-59
2022/05/13 04:50:17;;;;;;;24.67;7.55;;;;;;;18.20;59.33;101259.88;1786287;80;25775;-60
2022/05/13 04:52:43;;;;;;;16.17;6.58;;;;;;;18.25;59.11;101262.08;1786424;79;25680;-60
2022/05/13 04:55:10;;;;;;;16.00;6.00;;;;;;;18.31;59.01;101264.13;1786616;79;26732;-60
2022/05/13 04:57:38;;;;;;;13.62;5.47;;;;;;;18.36;58.88;101262.23;1786920;80;25695;-60
2022/05/13 05:00:08;;;;;;;21.77;4.92;;;;;;;18.40;58.55;101265.80;1786403;79;27541;-60
2022/05/13 05:02:35;;;;;;;8.00;4.70;;;;;;;18.47;58.14;101261.83;1757352;80;25807;-60
2022/05/13 05:05:04;;;;;;;10.35;5.35;;;;;;;18.52;57.91;101261.30;1757141;81;25546;-60
2022/05/13 05:07:31;;;;;;;15.98;5.45;;;;;;;18.59;57.82;101258.23;1757257;81;26374;-60
2022/05/13 05:09:58;;;;;;;15.45;4.95;;;;;;;18.69;57.28;101261.56;1756873;81;25793;-60
2022/05/13 05:12:24;;;;;;;16.80;5.05;;;;;;;18.76;56.96;101263.93;1756956;81;27458;-60
2022/05/13 05:14:51;;;;;;;21.10;5.30;;;;;;;18.84;56.94;101269.83;1756610;81;25798;-60
2022/05/13 05:17:18;;;;;;;15.00;4.90;;;;;;;18.91;56.73;101269.48;1757286;81;25660;-60
2022/05/13 05:19:44;;;;;;;22.10;6.42;;;;;;;18.97;56.79;101270.64;1756848;81;25930;-60
2022/05/13 05:22:11;;;;;;;40.25;8.25;;;;;;;19.06;56.71;101272.29;1756900;81;25966;-60
2022/05/13 05:24:38;;;;;;;23.85;8.18;;;;;;;19.14;56.30;101280.11;1736948;81;27478;-60
2022/05/13 05:27:09;;;;;;;28.85;7.87;;;;;;;19.18;56.10;101282.30;1734797;82;25819;-60
2022/05/13 05:29:34;;;;;;;34.50;7.28;;;;;;;19.22;55.96;101280.05;1735234;82;25593;-60
2022/05/13 05:32:01;;;;;;;30.27;7.22;;;;;;;19.25;55.48;101286.48;1735531;82;25888;-60
2022/05/13 05:34:27;;;;;;;17.10;6.72;;;;;;;19.28;55.23;101287.50;1737505;82;25737;-60
2022/05/13 05:36:54;;;;;;;28.32;6.97;;;;;;;19.31;55.14;101291.23;1737516;82;27483;-60
2022/05/13 05:39:21;;;;;;;24.65;6.62;;;;;;;19.36;55.17;101299.71;1737490;82;26016;-60
2022/05/13 05:41:48;;;;;;;27.45;6.40;;;;;;;19.43;54.97;101292.16;1729301;82;25708;-60
2022/05/13 05:44:15;;;;;;;24.25;6.53;;;;;;;19.50;54.95;101290.39;1713868;82;25830;-59
2022/05/13 05:46:42;;;;;;;24.12;5.92;;;;;;;19.60;54.63;101292.89;1748629;80;25748;-60
2022/05/13 05:49:10;;;;;;;22.67;6.03;;;;;;;19.70;54.45;101291.59;1774694;80;28206;-60
2022/05/13 05:51:37;;;;;;;20.92;6.03;;;;;;;19.82;54.43;101289.80;1774897;80;25704;-60
2022/05/13 05:59:35;;;;;;;21.65;5.22;;;;;;;20.28;53.96;101291.56;1761784;80;25708;-59
2022/05/13 06:02:02;;;;;;;24.07;6.03;;;;;;;20.47;53.59;101288.80;1746051;81;27475;-59
2022/05/13 06:04:28;;;;;;;20.43;5.30;;;;;;;20.60;53.55;101284.87;1757867;81;25692;-59
2022/05/13 06:06:55;;;;;;;12.23;5.58;;;;;;;20.76;52.98;101281.62;1737694;81;25901;-59
2022/05/13 06:09:22;;;;;;;18.55;5.83;;;;;;;20.83;52.82;101275.73;1739585;81;25803;-59
2022/05/13 06:11:49;;;;;;;24.50;6.10;;;;;;;20.92;52.57;101282.78;1740913;81;25798;-59
2022/05/13 06:14:16;;;;;;;17.10;5.30;;;;;;;20.98;52.32;101280.30;1737058;80;27591;-59
2022/05/13 06:16:43;;;;;;;11.30;5.30;;;;;;;21.08;52.24;101272.64;1732751;82;25527;-59
2022/05/13 06:19:10;;;;;;;18.48;5.22;;;;;;;21.15;52.14;101283.12;1735810;81;25463;-59
2022/05/13 06:21:37;;;;;;;22.20;6.20;;;;;;;21.23;51.92;101283.53;1751300;81;25801;-59
2022/05/13 06:24:06;;;;;;;20.60;5.12;;;;;;;21.28;51.83;101283.78;1748128;81;27375;-59
2022/05/13 06:26:33;;;;;;;18.80;5.65;;;;;;;21.38;51.63;101287.59;1732462;82;28168;-59
2022/05/13 06:29:03;;;;;;;38.23;7.62;;;;;;;21.43;51.40;101283.19;1731900;81;25787;-59
2022/05/13 06:31:29;;;;;;;26.33;5.70;;;;;;;21.44;51.46;101293.63;1747804;81;25729;-59
2022/05/13 06:33:57;;;;;;;19.70;5.55;;;;;;;21.47;51.43;101292.39;1756973;80;25744;-59
2022/05/13 06:36:25;;;;;;;27.52;6.03;;;;;;;21.52;51.35;101289.39;1745660;81;25714;-59
2022/05/13 06:38:52;;;;;;;19.10;7.20;;;;;;;21.60;51.32;101290.33;1745561;81;27472;-59
2022/05/13 06:41:19;;;;;;;24.47;9.75;;;;;;;21.71;51.22;101299.38;1737499;82;25797;-60
2022/05/13 06:43:46;;;;;;;24.35;6.42;;;;;;;21.81;51.17;101296.30;1720746;82;25683;-59
2022/05/13 06:46:13;;;;;;;24.18;5.65;;;;;;;21.87;50.53;101304.57;1682276;85;25802;-59
2022/05/13 06:48:40;;;;;;;29.57;6.17;;;;;;;21.94;50.27;101295.55;1682396;85;25488;-59
2022/05/13 06:51:06;;;;;;;15.03;5.78;;;;;;;22.02;50.28;101294.03;1681796;85;27437;-59
2022/05/13 06:53:33;;;;;;;36.13;5.47;;;;;;;22.08;50.19;101289.64;1671424;84;26055;-59
2022/05/13 06:56:00;;;;;;;16.20;5.10;;;;;;;22.14;50.04;101288.87;1683051;84;25516;-59
2022/05/13 06:58:27;;;;;;;24.63;5.28;;;;;;;22.22;49.45;101285.10;1674344;84;28043;-59
2022/05/13 07:00:54;;;;;;;28.50;5.58;;;;;;;22.27;48.87;101285.36;1669456;83;25864;-59
2022/05/13 07:03:21;;;;;;;18.60;5.28;;;;;;;22.32;48.78;101284.22;1707572;82;27471;-59
2022/05/13 07:05:48;;;;;;;21.82;4.72;;;;;;;22.35;48.83;101289.31;1708811;82;25805;-59
2022/05/13 07:08:15;;;;;;;18.20;6.15;;;;;;;22.40;48.44;101293.67;1704739;82;25631;-59
2022/05/13 07:10:43;;;;;;;17.27;5.33;;;;;;;22.40;48.54;101282.72;1679505;85;25814;-59
2022/05/13 07:13:14;;;;;;;9.33;4.53;;;;;;;22.43;48.45;101282.32;1682796;85;25709;-59
2022/05/13 07:15:43;;;;;;;21.25;4.85;;;;;;;22.51;48.26;101281.28;1684679;84;28265;-59
2022/05/13 07:18:11;;;;;;;20.68;4.67;;;;;;;22.56;48.12;101275.19;1697943;83;25922;-59
2022/05/13 07:20:38;;;;;;;23.42;4.85;;;;;;;22.62;48.09;101277.14;1696480;84;25800;-60
2022/05/13 07:23:07;;;;;;;16.57;5.08;;;;;;;22.67;47.93;101274.62;1709772;82;26716;-59
2022/05/13 07:25:34;;;;;;;40.15;4.78;;;;;;;22.70;48.02;101275.59;1724177;81;25708;-59
2022/05/13 07:28:01;;;;;;;20.02;4.75;;;;;;;22.74;47.76;101278.77;1719775;82;29629;-59
2022/05/13 07:30:29;;;;;;;40.08;5.80;;;;;;;22.78;47.64;101272.66;1728029;82;25461;-59
2022/05/13 07:32:56;;;;;;;19.85;4.28;;;;;;;22.87;47.81;101272.48;1719625;82;25771;-60
2022/05/13 07:35:22;;;;;;;22.15;5.58;;;;;;;23.00;47.83;101284.85;1710134;83;25930;-60
2022/05/13 07:37:49;;;;;;;16.42;4.67;;;;;;;23.14;47.60;101287.11;1723869;82;25773;-59
2022/05/13 07:43:03;;;;;;;14.35;4.67;;;;;;;23.39;46.23;101277.80;1697770;84;26575;-59
2022/05/13 07:45:31;;;;;;;17.02;4.22;;;;;;;23.58;46.03;101279.41;1695567;82;25705;-59
2022/05/13 07:48:01;;;;;;;23.57;4.50;;;;;;;23.81;45.84;101276.75;1696607;83;26716;-59
2022/05/13 07:50:29;;;;;;;16.52;5.80;;;;;;;24.02;45.52;101266.11;1694958;84;25788;-59
2022/05/13 07:52:56;;;;;;;19.77;4.00;;;;;;;24.19;44.67;101263.22;1711824;83;27466;-59
2022/05/13 07:55:23;;;;;;;20.32;4.42;;;;;;;24.34;45.05;101258.81;1733072;82;25699;-59
2022/05/13 07:57:50;;;;;;;20.68;4.25;;;;;;;24.46;44.38;101265.89;1716782;82;25766;-59
2022/05/13 08:00:33;;;;;;;28.77;3.83;;;;;;;24.56;43.82;101254.41;1719271;83;25823;-59
2022/05/13 08:03:12;;;;;;;25.23;5.00;;;;;;;24.63;43.54;101256.59;1720490;82;25827;-59
2022/05/13 08:05:45;;;;;;;20.12;4.42;;;;;;;24.69;43.03;101253.54;1720637;82;27538;-59
2022/05/13 08:08:30;;;;;;;19.87;4.60;;;;;;;24.71;43.35;101254.69;1710811;83;25930;-59
2022/05/13 08:10:58;;;;;;;25.57;4.80;;;;;;;24.72;43.34;101250.36;1699751;83;25657;-59
2022/05/13 08:13:29;;;;;;;19.10;5.12;;;;;;;24.80;43.65;101247.88;1709779;83;25800;-59
2022/05/13 08:15:55;;;;;;;21.95;4.95;;;;;;;24.91;43.80;101250.48;1703363;82;25816;-59
2022/05/13 08:18:22;;;;;;;25.25;4.97;;;;;;;25.02;43.73;101251.67;1701187;83;28262;-59
2022/05/13 08:20:50;;;;;;;26.48;4.47;;;;;;;25.11;43.34;101242.09;1693698;84;25749;-59
2022/05/13 08:23:18;;;;;;;29.37;5.67;;;;;;;25.21;43.01;101239.70;1689720;84;25813;-59
2022/05/13 08:25:45;;;;;;;20.05;4.37;;;;;;;25.34;42.78;101241.51;1678314;84;25907;-59
2022/05/13 08:28:13;;;;;;;23.15;5.08;;;;;;;25.49;42.96;101238.98;1679768;83;25876;-59
2022/05/13 08:30:41;;;;;;;26.62;5.33;;;;;;;25.59;42.03;101236.56;1677440;84;27306;-59
2022/05/13 08:33:09;;;;;;;18.12;4.80;;;;;;;25.71;42.11;101236.15;1708927;83;25739;-59
2022/05/13 08:35:40;;;;;;;15.38;3.98;;;;;;;25.81;41.24;101228.73;1724598;83;25487;-59
2022/05/13 08:38:09;;;;;;;20.15;4.35;;;;;;;25.92;41.57;101229.89;1719922;83;26435;-59
2022/05/13 08:41:09;;;;;;;22.25;4.87;;;;;;;26.08;40.06;101230.73;1688049;83;25814;-60
2022/05/13 08:43:47;;;;;;;26.33;3.80;;;;;;;26.19;40.01;101229.11;1692111;84;27577;-59
2022/05/13 08:46:33;;;;;;;26.10;3.95;;;;;;;26.34;39.39;101225.97;1688378;84;25748;-59
2022/05/13 08:49:31;;;;;;;29.85;3.87;;;;;;;26.45;38.54;101229.03;1684847;85;25753;-59
2022/05/13 08:55:23;;;;;;;30.82;4.00;;;;;;;26.69;38.14;101223.93;1676991;85;25738;-58
2022/05/13 08:57:51;;;;;;;28.15;4.85;;;;;;;26.88;37.11;101218.40;1677398;85;27470;-59
2022/05/13 09:00:41;;;;;;;17.55;4.80;;;;;;;27.03;37.57;101224.32;1677432;83;25770;-59
2022/05/13 09:03:42;;;;;;;12.93;3.67;;;;;;;27.18;37.30;101214.73;1695610;84;25736;-59
2022/05/13 09:06:40;;;;;;;25.55;4.53;;;;;;;27.39;35.83;101218.03;1684551;84;25890;-59
2022/05/13 09:09:11;;;;;;;17.57;4.75;;;;;;;27.53;35.96;101208.45;1685318;84;25508;-60
2022/05/13 09:12:04;;;;;;;19.48;3.92;;;;;;;27.74;36.26;101209.80;1684751;85;27540;-60
2022/05/13 09:15:11;;;;;;;17.37;3.58;;;;;;;27.95;34.76;101204.20;1698199;84;25805;-60
2022/05/13 09:17:49;;;;;;;24.82;4.20;;;;;;;28.12;35.42;101203.47;1702430;84;25792;-60
2022/05/13 09:20:21;;;;;;;21.95;4.20;;;;;;;28.58;34.84;101196.65;1698289;84;25835;-59
2022/05/13 09:22:58;;;;;;;22.07;4.30;;;;;;;29.44;33.86;101192.13;1684687;84;25781;-60
2022/05/13 09:25:51;;;;;;;38.10;5.53;;;;;;;29.44;33.86;101192.13;1708026;83;27285;-59
2022/05/13 09:28:18;;;;;;;18.12;4.65;;;;;;;29.90;33.41;101198.33;1712471;83;25847;-60
2022/05/13 09:30:50;;;;;;;19.12;4.83;;;;;;;30.19;32.46;101183.50;1712274;83;25724;-59
2022/05/13 09:33:28;;;;;;;22.22;4.42;;;;;;;30.50;32.39;101182.46;1697909;82;26762;-59
2022/05/13 09:36:00;;;;;;;27.07;3.72;;;;;;;30.95;31.72;101181.84;1684561;84;25466;-60
2022/05/13 09:38:44;;;;;;;15.23;3.55;;;;;;;31.42;31.34;101175.61;1684708;85;27519;-59
2022/05/13 09:41:14;;;;;;;20.90;3.22;;;;;;;31.88;30.33;101161.70;1690547;84;25720;-60
2022/05/13 09:43:54;;;;;;;28.42;3.83;;;;;;;32.24;29.85;101160.48;1688658;83;25769;-59
2022/05/13 09:46:37;;;;;;;26.15;3.72;;;;;;;32.60;28.63;101161.97;1705025;83;25950;-60
2022/05/13 09:49:33;;;;;;;15.72;3.35;;;;;;;32.83;27.84;101149.50;1697496;82;25801;-59
2022/05/13 09:52:25;;;;;;;24.52;3.72;;;;;;;32.85;27.29;101143.67;1665920;85;27504;-60
2022/05/13 09:54:53;;;;;;;23.00;4.70;;;;;;;33.02;26.88;101142.84;1691957;83;25499;-59
2022/05/13 09:57:33;;;;;;;19.00;3.52;;;;;;;33.22;26.76;101134.16;1695078;84;25830;-59
2022/05/13 10:00:10;;;;;;;27.67;4.15;;;;;;;33.41;26.56;101135.85;1698348;83;25922;-59
2022/05/13 10:02:45;;;;;;;70.67;5.45;;;;;;;33.75;26.01;101137.16;1707110;83;26376;-60
2022/05/13 10:05:22;;;;;;;18.23;3.30;;;;;;;34.22;25.33;101135.84;1712040;83;27638;-59
2022/05/13 10:08:00;;;;;;;15.68;3.27;;;;;;;34.58;25.67;101135.66;1693656;83;25698;-59
2022/05/13 10:16:34;;;;;;;14.50;2.98;;;;;;;36.04;24.00;101128.97;1770341;80;25699;-60
2022/05/13 10:19:37;;;;;;;8.73;2.92;;;;;;;36.41;22.79;101125.95;1769928;81;29685;-60
2022/05/13 10:22:33;;;;;;;12.53;3.03;;;;;;;36.71;21.71;101121.02;1733287;81;25496;-60
2022/05/13 10:25:22;;;;;;;13.72;3.02;;;;;;;36.85;22.56;101118.23;1622521;87;25540;-60
2022/05/13 10:28:07;;;;;;;18.50;3.40;;;;;;;37.25;22.19;101115.06;1738499;81;26233;-60
2022/05/13 10:30:42;;;;;;;9.90;2.30;;;;;;;37.73;21.75;101110.46;1719506;83;25824;-59
2022/05/13 10:33:20;;;;;;;9.13;2.50;;;;;;;38.08;20.61;101114.81;1715842;83;27480;-60
2022/05/13 10:36:07;;;;;;;17.65;2.62;;;;;;;38.14;20.18;101105.14;1720307;82;25720;-59
2022/05/13 10:38:45;;;;;;;11.90;2.50;;;;;;;38.26;20.08;101105.98;1679506;83;25737;-59
2022/05/13 10:41:35;;;;;;;14.38;2.70;;;;;;;38.33;20.67;101096.58;1715308;83;25811;-59
2022/05/13 10:44:39;;;;;;;12.40;2.90;;;;;;;38.66;20.24;101099.98;1689876;83;26063;-59
2022/05/13 10:47:47;;;;;;;14.28;2.65;;;;;;;39.01;19.81;101092.34;1715124;82;27705;-60
2022/05/13 10:50:25;;;;;;;7.65;2.20;;;;;;;39.25;19.67;101089.19;1702734;84;25793;-60
2022/05/13 10:53:26;;;;;;;15.15;2.40;;;;;;;39.71;18.92;101081.45;1702397;84;25730;-59
2022/05/13 10:56:22;;;;;;;18.73;2.52;;;;;;;39.65;18.82;101078.48;1709974;83;25807;-59
2022/05/13 10:59:22;;;;;;;12.25;2.45;;;;;;;39.73;19.27;101069.84;1688912;83;25648;-59
2022/05/13 11:02:13;;;;;;;16.20;2.58;;;;;;;39.97;19.09;101068.55;1686685;85;27560;-59
2022/05/13 11:04:57;;;;;;;12.25;2.60;;;;;;;40.32;19.02;101058.72;1702609;83;25837;-59
2022/05/13 11:07:38;;;;;;;12.20;2.80;;;;;;;40.67;18.06;101060.11;1712089;82;25760;-60
2022/05/13 11:10:44;;;;;;;9.13;2.20;;;;;;;40.19;18.07;101057.17;1711978;83;25858;-60
2022/05/13 11:13:48;;;;;;;13.20;3.00;;;;;;;40.38;18.15;101051.77;1711971;83;26394;-60
2022/05/13 11:16:25;;;;;;;23.05;2.60;;;;;;;40.73;17.94;101043.28;1712199;83;27505;-59
2022/05/13 11:19:06;;;;;;;14.03;2.52;;;;;;;41.18;17.35;101030.67;1711162;83;25747;-60
2022/05/13 11:21:44;;;;;;;12.77;2.30;;;;;;;41.57;17.22;101024.44;1696267;83;25714;-59
2022/05/13 11:27:43;;;;;;;10.32;2.65;;;;;;;41.66;16.80;101015.89;1702569;83;26076;-59
2022/05/13 11:30:15;;;;;;;11.15;2.40;;;;;;;41.51;16.72;101012.27;1702335;83;27681;-59
2022/05/13 11:33:15;;;;;;;15.80;2.10;;;;;;;41.76;16.49;101014.07;1688444;84;25743;-60
2022/05/13 11:36:05;;;;;;;14.78;2.00;;;;;;;42.12;16.26;101009.56;1673925;85;25549;-60
2022/05/13 11:38:46;;;;;;;17.95;2.20;;;;;;;42.42;15.88;101008.06;1696296;83;25679;-61
2022/05/13 11:41:16;;;;;;;10.95;2.20;;;;;;;42.82;15.74;101001.80;1684901;85;25539;-60
2022/05/13 11:44:05;;;;;;;8.83;2.02;;;;;;;43.03;14.84;100995.22;1693161;82;27551;-60
2022/05/13 11:47:06;;;;;;;11.08;1.80;;;;;;;42.91;15.20;100986.95;1679706;83;25508;-60
2022/05/13 11:49:43;;;;;;;9.18;2.37;;;;;;;43.31;14.91;100982.03;1676235;84;26493;-60
2022/05/13 11:52:22;;;;;;;7.42;1.70;;;;;;;43.54;14.90;100974.42;1676272;84;26747;-60
2022/05/13 11:54:48;;;;;;;10.97;2.50;;;;;;;43.98;14.93;100965.26;1685612;84;25803;-61
2022/05/13 11:57:23;;;;;;;7.58;2.10;;;;;;;44.47;14.54;100956.30;1683610;84;27561;-60
2022/05/13 12:00:02;;;;;;;8.63;2.15;;;;;;;44.74;14.50;100956.56;1713640;82;26356;-61
2022/05/13 12:02:48;;;;;;;6.12;1.90;;;;;;;44.68;14.25;100948.31;1723653;82;25823;-61
2022/05/13 12:05:23;;;;;;;7.58;2.08;;;;;;;44.31;14.03;100939.22;1728936;82;26459;-60
2022/05/13 12:08:07;;;;;;;14.63;3.05;;;;;;;43.56;14.75;100935.86;1731146;82;26162;-60
2022/05/13 12:11:04;;;;;;;12.82;2.20;;;;;;;43.83;15.00;100935.66;1729307;82;27527;-61
2022/05/13 12:14:04;;;;;;;9.05;1.87;;;;;;;43.56;14.75;100922.50;1728380;82;25912;-60
2022/05/13 12:16:39;;;;;;;11.55;2.45;;;;;;;44.02;14.51;100921.43;1683604;85;25781;-60
2022/05/13 12:19:19;;;;;;;11.05;1.80;;;;;;;44.64;14.25;100911.12;1683932;85;25792;-61
2022/05/13 12:22:14;;;;;;;5.80;1.60;;;;;;;44.97;13.71;100904.23;1677502;84;25741;-60